Latest Weather Observations for Falls Creek

IDV60801

Issued at 9:32 pm EST Monday 25 July 2016 (issued every 30 minutes, with the page automatically refreshed every 10 minutes)

About weather observations | Map of weather stations | Latest weather observations for VIC | Other Formats
Station Details ID: 083084 Name: FALLS CREEK Lat: -36.87 Lon: 147.28 Height: 1765.0 m
Data from the previous 72 hours. | See also: Recent months at Falls Creek
Date/Time
EST
Temp
°C
App
Temp
°C
Dew
Point
°C
Rel
Hum
%
Delta-T
°C
Wind Press
QNH
hPa
Press
MSL
hPa
Rain since
9am
mm
Dir  Spd
km/h
Gust
km/h
Spd
kts
Gust
kts
25/09:30pm -1.8 -11.1 -2.1 98 0.0 NNW 37 50 20 27 1003.9 1006.1 4.2
25/09:00pm -1.9 -12.4 -2.2 98 0.0 NNW 43 67 23 36 1003.6 1005.7 3.8
25/08:31pm -2.0 -13.0 -2.3 98 0.0 NNW 46 70 25 38 1003.8 1006.0 3.4
25/08:30pm -2.0 -12.7 -2.3 98 0.0 NNW 44 61 24 33 1003.8 1006.0 3.4
25/08:00pm -2.1 -13.5 -2.4 98 0.0 NNW 48 78 26 42 1004.4 1006.6 2.8
25/07:30pm -2.2 -12.9 -2.5 98 0.0 NNW 44 67 24 36 1004.5 1006.7 2.4
25/07:00pm -2.3 -12.8 -2.6 98 0.0 NNW 43 63 23 34 1005.5 1007.7 2.2
25/06:30pm -2.2 -13.3 -2.5 98 0.0 NNW 46 76 25 41 1006.2 1008.5 1.8
25/06:00pm -2.1 -13.1 -2.4 98 0.0 NNW 46 70 25 38 1005.1 1007.3 1.6
25/05:30pm -2.6 -12.0 -2.9 98 0.0 NNW 37 57 20 31 1005.7 1008.0 1.6
25/05:00pm -2.3 -13.4 -2.6 98 0.0 NNW 46 69 25 37 1005.5 1007.7 1.4
25/04:30pm -1.7 -13.1 -2.0 98 0.0 NNW 48 70 26 38 1005.5 1007.7 1.2
25/04:00pm -1.5 -13.2 -1.8 98 0.0 NNW 50 70 27 38 1004.8 1007.0 0.6
25/03:30pm -1.5 -13.2 -1.8 98 0.0 NNW 50 70 27 38 1004.8 1007.0 0.4
25/03:15pm -1.5 -11.9 -1.8 98 0.0 NNW 43 61 23 33 1005.2 1007.5 0.4
25/03:00pm -1.5 -12.1 -1.8 98 0.0 NNW 44 59 24 32 1005.4 1007.6 0.4
25/02:30pm -1.6 -12.6 -1.9 98 0.0 NNW 46 65 25 35 1005.2 1007.5 0.4
25/02:00pm -1.6 -12.2 -1.9 98 0.0 NNW 44 63 24 34 1005.1 1007.3 0.4
25/01:30pm -1.5 -11.5 -1.8 98 0.0 NNW 41 61 22 33 1005.5 1007.7 0.2
25/01:01pm -1.7 -11.4 -2.0 98 0.0 NNW 39 57 21 31 1005.8 1008.1 0.2
25/01:00pm -1.7 -11.7 -2.0 98 0.0 NNW 41 57 22 31 1006.0 1008.2 0.2
25/12:30pm -1.8 -11.1 -2.1 98 0.0 NNW 37 56 20 30 1006.4 1008.7 0.2
25/12:06pm -2.1 -5.5 -2.4 98 0.0 NNW 6 52 3 28 1006.3 1008.6 0.2
25/12:00pm -2.1 -4.4 -2.4 98 0.0 CALM 0 2 0 1 1006.4 1008.7 0.2
25/11:30am -2.3 -4.6 -2.6 98 0.0 CALM 0 0 0 0 1006.9 1009.2 0.2
25/11:00am -2.4 -4.7 -2.7 98 0.0 CALM 0 0 0 0 1007.3 1009.6 0.2
25/10:30am -2.6 -5.0 -2.9 98 0.0 CALM 0 0 0 0 1007.1 1009.5 0.2
25/10:00am -2.8 -5.2 -3.1 98 0.0 CALM 0 0 0 0 1007.0 1009.3 0.2
25/09:30am -3.0 -5.4 -3.3 98 0.0 CALM 0 0 0 0 1006.7 1009.0 0.2
25/09:00am -3.4 -5.9 -3.7 98 -0.1 CALM 0 0 0 0 1006.4 1008.7 0.0
25/08:30am -3.6 -6.1 -3.9 98 -0.1 CALM 0 0 0 0 1006.4 1008.7 0.0
25/08:00am -3.9 -6.4 -4.2 98 -0.1 CALM 0 0 0 0 1006.1 1008.3 0.0
25/07:30am -4.0 -6.5 -4.3 98 -0.1 CALM 0 0 0 0 1005.8 1008.1 0.0
25/07:00am -4.1 -6.6 -4.4 98 -0.1 CALM 0 0 0 0 1005.1 1007.3 0.0
25/06:30am -4.1 -6.6 -4.4 98 -0.1 CALM 0 0 0 0 1004.9 1007.1 0.0
25/06:00am -4.1 -6.6 -4.4 98 -0.1 CALM 0 0 0 0 1004.4 1006.6 0.0
25/05:30am -4.2 -6.8 -4.5 98 -0.1 CALM 0 0 0 0 1004.1 1006.2 0.0
25/05:00am -4.2 -6.8 -4.5 98 -0.1 CALM 0 0 0 0 1003.6 1005.7 0.0
25/04:30am -4.3 -7.2 -4.6 98 -0.1 NNW 2 2 1 1 1003.2 1005.4 0.0
25/04:00am -4.2 -7.1 -4.5 98 -0.1 NNW 2 2 1 1 1003.0 1005.1 0.0
25/03:30am -4.1 -7.0 -4.4 98 -0.1 NNW 2 2 1 1 1002.9 1005.0 0.0
25/03:00am -4.3 -7.2 -4.6 98 -0.1 NNW 2 2 1 1 1002.6 1004.7 0.0
25/02:30am -4.0 -6.9 -4.3 98 -0.1 NNW 2 2 1 1 1002.6 1004.7 0.0
25/02:00am -4.1 -7.0 -4.4 98 -0.1 NNW 2 2 1 1 1002.4 1004.5 0.0
25/01:30am -4.2 -7.1 -4.5 98 -0.1 NNW 2 2 1 1 1002.3 1004.4 0.0
25/01:00am -4.3 -7.2 -4.6 98 -0.1 NNW 2 2 1 1 1002.6 1004.7 0.0
25/12:30am -4.2 -7.1 -4.5 98 -0.1 NNW 2 2 1 1 1002.7 1004.9 0.0
25/12:00am -4.2 -7.1 -4.5 98 -0.1 NNW 2 2 1 1 1002.7 1004.9 0.0
 
Date/Time
EST
Temp
°C
App
Temp
°C
Dew
Point
°C
Rel
Hum
%
Delta-T
°C
Wind Press
QNH
hPa
Press
MSL
hPa
Rain since
9am
mm
Dir  Spd
km/h
Gust
km/h
Spd
kts
Gust
kts
24/11:30pm -3.8 -6.7 -4.1 98 -0.1 NNW 2 2 1 1 1002.0 1004.1 0.0
24/11:00pm -3.5 -6.4 -3.8 98 -0.1 NNW 2 2 1 1 1002.6 1004.7 0.0
24/10:30pm -3.7 -6.6 -4.0 98 -0.1 NNW 2 2 1 1 1002.9 1005.0 0.0
24/10:00pm -3.7 -6.6 -4.0 98 -0.1 NNW 2 2 1 1 1003.1 1005.2 0.0
24/09:30pm -3.6 -7.4 -3.9 98 -0.1 NNW 7 11 4 6 1003.3 1005.5 0.0
24/09:00pm -3.7 -7.9 -4.0 98 -0.1 NNW 9 13 5 7 1003.9 1006.1 0.0
24/08:30pm -3.9 -8.1 -4.2 98 -0.1 NNW 9 11 5 6 1004.3 1006.5 0.0
24/08:00pm -4.0 -8.2 -4.3 98 -0.1 NNW 9 11 5 6 1004.4 1006.6 0.0
24/07:30pm -4.0 -8.2 -4.3 98 -0.1 NNW 9 13 5 7 1004.4 1006.6 0.0
24/07:00pm -3.6 -7.8 -3.9 98 -0.1 NNW 9 13 5 7 1004.4 1006.6 0.0
24/06:30pm -3.7 -7.9 -4.0 98 -0.1 NNW 9 15 5 8 1004.3 1006.5 0.0
24/06:00pm -4.0 -9.0 -4.3 98 -0.1 NNW 13 19 7 10 1004.1 1006.2 0.0
24/05:30pm -4.0 -9.4 -4.3 98 -0.1 NNW 15 20 8 11 1004.1 1006.2 0.0
24/05:00pm -4.2 -10.0 -4.5 98 -0.1 NNW 17 22 9 12 1003.9 1006.1 0.0
24/04:30pm -4.1 -10.8 -4.4 98 -0.1 NNW 22 32 12 17 1003.9 1006.1 0.0
24/04:00pm -4.0 -11.9 -4.3 98 -0.1 NNW 28 41 15 22 1003.7 1005.8 0.0
24/03:40pm -4.0 -10.7 -4.3 98 -0.1 NNW 22 50 12 27 1003.7 1005.8 0.0
24/03:30pm -4.0 -10.3 -4.3 98 -0.1 NNW 20 30 11 16 1003.5 1005.6 0.0
24/03:00pm -4.2 -12.5 -4.5 98 -0.1 NNW 30 44 16 24 1003.8 1006.0 0.0
24/02:49pm -4.2 -12.5 -4.5 98 -0.1 NNW 30 54 16 29 1003.8 1006.0 0.0
24/02:44pm -4.2 -10.4 -4.5 98 -0.1 NNW 19 54 10 29 1003.7 1005.8 0.0
24/02:30pm -4.3 -10.1 -4.6 98 -0.1 NNW 17 24 9 13 1003.9 1006.1 0.0
24/02:00pm -4.4 -10.8 -4.7 98 -0.1 NNW 20 30 11 16 1003.7 1005.8 0.0
24/01:30pm -4.5 -11.6 -4.8 98 -0.1 NNW 24 33 13 18 1004.6 1006.8 0.0
24/01:00pm -4.4 -11.5 -4.7 98 -0.1 NNW 24 37 13 20 1004.9 1007.1 0.0
24/12:30pm -4.4 -14.4 -4.7 98 -0.1 NNW 39 57 21 31 1005.6 1007.8 0.0
24/12:21pm -4.4 -13.6 -4.7 98 -0.1 NNW 35 57 19 31 1005.8 1008.1 0.0
24/12:00pm -4.4 -9.8 -4.7 98 -0.1 NNW 15 35 8 19 1006.3 1008.6 0.0
24/11:30am -4.5 -9.9 -4.9 97 -0.1 NNW 15 24 8 13 1007.0 1009.3 0.0
24/11:00am -4.8 -11.0 -5.2 97 -0.1 NNW 19 28 10 15 1007.3 1009.6 0.0
24/10:30am -5.0 -11.4 -5.4 97 -0.1 NW 20 30 11 16 1007.5 1009.8 0.0
24/10:00am -5.0 -11.4 -5.4 97 -0.1 NNW 20 32 11 17 1007.4 1009.7 0.0
24/09:30am -5.1 -11.6 -5.5 97 -0.1 NW 20 28 11 15 1007.4 1009.7 0.0
24/09:00am -5.1 -11.4 -5.5 97 -0.1 NW 19 26 10 14 1007.5 1009.8 0.2
24/08:30am -5.1 -11.9 -5.5 97 -0.1 NW 22 28 12 15 1007.4 1009.7 0.2
24/08:00am -5.2 -12.8 -5.6 97 -0.1 NW 26 37 14 20 1006.9 1009.2 0.2
24/07:30am -5.3 -13.7 -5.7 97 -0.1 NW 30 41 16 22 1006.6 1008.8 0.2
24/07:00am -5.5 -14.9 -5.9 97 -0.1 NW 35 48 19 26 1006.4 1008.7 0.2
24/06:30am -5.3 -15.0 -5.7 97 -0.1 NW 37 50 20 27 1006.6 1008.8 0.2
24/06:01am -5.3 -15.0 -5.7 97 -0.1 NW 37 56 20 30 1006.7 1009.0 0.2
24/06:00am -5.4 -15.5 -5.8 97 -0.1 WNW 39 56 21 30 1006.7 1009.0 0.2
24/05:55am -5.4 -14.7 -5.8 97 -0.1 WNW 35 56 19 30 1006.7 1009.0 0.2
24/05:30am -5.4 -14.7 -5.8 97 -0.1 WNW 35 48 19 26 1006.8 1009.1 0.2
24/05:10am -5.3 -14.6 -5.7 97 -0.1 WNW 35 54 19 29 1007.1 1009.5 0.2
24/05:00am -5.5 -14.9 -5.9 97 -0.1 WNW 35 46 19 25 1007.0 1009.3 0.2
24/04:30am -5.4 -13.8 -5.8 97 -0.1 NW 30 44 16 24 1007.7 1010.1 0.2
24/04:20am -5.5 -13.9 -5.9 97 -0.1 NW 30 48 16 26 1007.5 1009.8 0.2
24/04:00am -5.4 -13.0 -5.8 97 -0.1 NW 26 37 14 20 1007.6 1009.9 0.2
24/03:34am -5.4 -13.4 -5.8 97 -0.1 NW 28 50 15 27 1007.7 1010.1 0.2
24/03:30am -5.4 -13.0 -5.8 97 -0.1 NW 26 41 14 22 1007.7 1010.1 0.2
24/03:00am -5.4 -13.8 -5.8 97 -0.1 NW 30 48 16 26 1007.9 1010.2 0.2
24/02:45am -5.4 -13.4 -5.8 97 -0.1 NW 28 46 15 25 1008.0 1010.3 0.2
24/02:30am -5.4 -13.0 -5.8 97 -0.1 NW 26 41 14 22 1008.1 1010.4 0.2
24/02:00am -5.3 -12.5 -5.7 97 -0.1 NW 24 37 13 20 1008.0 1010.3 0.2
24/01:30am -5.3 -13.3 -5.7 97 -0.1 WNW 28 43 15 23 1008.1 1010.4 0.2
24/01:00am -5.4 -13.8 -5.8 97 -0.1 WNW 30 43 16 23 1008.1 1010.4 0.2
24/12:30am -5.2 -14.1 -5.6 97 -0.1 WNW 33 54 18 29 1008.1 1010.4 0.2
24/12:00am -5.0 -13.3 -5.4 97 -0.1 W 30 52 16 28 1008.3 1010.7 0.2
 
Date/Time
EST
Temp
°C
App
Temp
°C
Dew
Point
°C
Rel
Hum
%
Delta-T
°C
Wind Press
QNH
hPa
Press
MSL
hPa
Rain since
9am
mm
Dir  Spd
km/h
Gust
km/h
Spd
kts
Gust
kts
23/11:57pm -5.0 -13.0 -5.4 97 -0.1 W 28 52 15 28 1008.2 1010.6 0.2
23/11:30pm -5.0 -13.3 -5.4 97 -0.1 W 30 46 16 25 1008.5 1010.8 0.2
23/11:00pm -4.9 -11.7 -5.3 97 -0.1 WNW 22 43 12 23 1008.3 1010.7 0.2
23/10:30pm -4.9 -13.2 -5.3 97 -0.1 WNW 30 48 16 26 1008.2 1010.6 0.2
23/10:28pm -4.9 -12.8 -5.2 98 -0.1 WNW 28 48 15 26 1008.2 1010.6 0.2
23/10:08pm -4.7 -12.6 -5.0 98 -0.1 NW 28 50 15 27 1008.1 1010.4 0.2
23/10:00pm -4.7 -11.5 -5.0 98 -0.1 NW 22 33 12 18 1007.9 1010.2 0.2
23/09:30pm -4.8 -12.0 -5.1 98 -0.1 NW 24 39 13 21 1007.7 1010.1 0.2
23/09:00pm -4.7 -12.6 -5.0 98 -0.1 NW 28 65 15 35 1007.5 1009.8 0.2
23/08:30pm -4.8 -13.5 -5.1 98 -0.1 NW 32 52 17 28 1006.9 1009.2 0.2
23/08:00pm -5.0 -13.7 -5.4 97 -0.1 WNW 32 56 17 30 1006.6 1008.8 0.2
23/07:30pm -4.9 -14.2 -5.3 97 -0.1 WNW 35 56 19 30 1006.6 1008.8 0.2
23/07:29pm -4.9 -14.2 -5.3 97 -0.1 WNW 35 56 19 30 1006.6 1008.8 0.2
23/07:27pm -4.9 -14.2 -5.3 97 -0.1 WNW 35 56 19 30 1006.3 1008.6 0.2
23/07:06pm -4.7 -13.4 -5.0 98 -0.1 NW 32 50 17 27 1005.8 1008.1 0.2
23/07:00pm -4.7 -13.6 -5.0 98 -0.1 NW 33 50 18 27 1005.7 1008.0 0.2
23/06:36pm -4.7 -13.0 -5.0 98 -0.1 NW 30 48 16 26 1005.6 1007.8 0.2
23/06:30pm -4.7 -13.4 -5.0 98 -0.1 NW 32 44 17 24 1005.5 1007.7 0.2
23/06:00pm -5.1 -13.8 -5.4 98 -0.1 NW 32 50 17 27 1005.0 1007.2 0.2
23/05:30pm -5.3 -14.3 -6.0 95 0.0 NW 33 54 18 29 1004.4 1006.6 0.2
23/05:00pm -5.2 -13.6 -5.6 97 -0.1 WNW 30 48 16 26 1004.1 1006.2 0.2
23/04:30pm -5.3 -14.3 -6.5 91 0.2 WNW 33 52 18 28 1003.5 1005.6 0.2
23/04:00pm -5.2 -14.2 -6.2 93 0.1 WNW 33 54 18 29 1003.3 1005.5 0.2
23/03:31pm -5.1 -15.6 -6.3 91 0.2 WNW 41 59 22 32 1002.9 1005.0 0.2
23/03:30pm -5.1 -16.0 -6.2 92 0.1 WNW 43 59 23 32 1002.7 1004.9 0.2
23/03:00pm -5.0 -16.5 -6.2 91 0.2 WNW 46 72 25 39 1001.7 1003.7 0.2
23/02:30pm -5.2 -16.7 -6.4 91 0.2 WNW 46 67 25 36 1001.3 1003.4 0.2
23/02:00pm -5.3 -15.8 -6.4 92 0.1 WNW 41 61 22 33 1001.2 1003.2 0.2
23/01:31pm -5.1 -14.1 -6.2 92 0.1 WNW 33 52 18 28 1001.2 1003.2 0.2
23/01:30pm -5.1 -14.5 -6.2 92 0.1 WNW 35 52 19 28 1001.1 1003.1 0.2
23/01:00pm -5.2 -15.0 -6.3 92 0.1 WNW 37 59 20 32 1000.7 1002.7 0.2
23/12:30pm -5.3 -16.8 -6.4 92 0.1 W 46 67 25 36 1000.0 1002.0 0.2
23/12:00pm -5.1 -16.2 -6.1 93 0.1 W 44 65 24 35 999.7 1001.6 0.2
23/11:31am -5.0 -16.8 -5.5 96 0.0 W 48 67 26 36 999.5 1001.5 0.2
23/11:30am -5.0 -17.2 -5.5 96 0.0 W 50 67 27 36 999.5 1001.5 0.2
23/11:00am -5.0 -16.8 -5.4 97 -0.1 W 48 65 26 35 999.3 1001.3 0.2
23/10:30am -4.1 -16.1 -4.4 98 -0.1 WNW 50 78 27 42 998.7 1000.6 0.2
23/10:00am -3.6 -13.9 -3.9 98 -0.1 WNW 41 61 22 33 998.2 1000.1 0.2
23/09:31am -3.5 -12.6 -3.8 98 -0.1 WNW 35 59 19 32 997.6 999.5 0.2
23/09:30am -3.4 -12.5 -3.7 98 -0.1 WNW 35 54 19 29 997.6 999.5 0.2
23/09:20am -3.6 -15.2 -3.9 98 -0.1 WNW 48 69 26 37 997.5 999.4 0.0
23/09:17am -3.7 -15.7 -4.0 98 -0.1 WNW 50 69 27 37 997.4 999.3 0.0
23/09:00am -3.3 -13.2 -3.6 98 0.0 WNW 39 59 21 32 997.3 999.1 57.8
23/08:30am -3.3 -12.8 -3.6 98 0.0 WNW 37 56 20 30 996.8 998.6 57.8
23/08:00am -3.3 -14.5 -3.6 98 0.0 WNW 46 65 25 35 996.6 998.4 57.8
23/07:30am -3.1 -11.8 -3.4 98 0.0 NW 33 52 18 28 996.1 997.9 57.6
23/07:07am -3.1 -10.9 -3.4 98 0.0 NW 28 48 15 26 995.7 997.5 57.6
23/07:00am -3.1 -10.5 -3.4 98 0.0 NW 26 41 14 22 995.5 997.3 57.4
23/06:30am -3.1 -11.6 -3.4 98 0.0 NW 32 50 17 27 995.1 996.9 57.2
23/06:03am -3.0 -11.5 -3.3 98 0.0 NW 32 56 17 30 994.5 996.3 57.0
23/06:00am -2.9 -11.0 -3.2 98 0.0 NW 30 46 16 25 994.5 996.3 57.0
23/05:42am -2.8 -11.3 -3.1 98 0.0 NW 32 50 17 27 994.2 995.9 56.8
23/05:30am -2.9 -12.0 -3.2 98 0.0 NW 35 48 19 26 994.1 995.8 56.6
23/05:00am -3.0 -14.2 -3.3 98 0.0 WNW 46 82 25 44 993.2 994.9 56.0
23/04:55am -2.8 -13.0 -3.1 98 0.0 NW 41 82 22 44 993.1 994.8 56.0
23/04:30am -2.8 -12.2 -3.1 98 0.0 NW 37 61 20 33 992.6 994.3 55.2
23/04:00am -2.8 -12.6 -3.1 98 0.0 WNW 39 61 21 33 992.4 994.1 55.0
23/03:30am -2.8 -15.5 -3.1 98 0.0 WNW 54 91 29 49 - - 54.4
23/03:24am -3.0 -14.2 -3.3 98 0.0 WNW 46 91 25 49 992.2 993.8 54.4
23/03:00am -2.5 -13.0 -2.8 98 0.0 NW 43 70 23 38 - - 53.8
23/02:30am -2.3 -13.0 -2.4 99 -0.1 WNW 44 72 24 39 - - 52.6
23/02:00am -1.6 -11.2 -1.7 99 0.0 WNW 39 61 21 33 - - 51.0
23/01:30am -1.2 -10.4 -1.3 99 0.0 NW 37 61 20 33 - - 48.4
23/01:00am -0.8 -11.1 -0.9 99 0.0 NW 43 80 23 43 992.3 993.9 47.4
23/12:30am -0.3 -11.1 -0.4 99 0.0 NNW 46 74 25 40 - - 45.8
23/12:00am -0.6 -11.8 -0.7 99 0.0 NW 48 78 26 42 992.3 993.9 45.4
 
Date/Time
EST
Temp
°C
App
Temp
°C
Dew
Point
°C
Rel
Hum
%
Delta-T
°C
Wind Press
QNH
hPa
Press
MSL
hPa
Rain since
9am
mm
Dir  Spd
km/h
Gust
km/h
Spd
kts
Gust
kts
22/11:55pm -0.5 -10.7 -0.6 99 0.0 NNW 43 78 23 42 992.3 993.9 45.4
22/11:30pm -0.5 -8.6 -0.6 99 0.0 NW 32 50 17 27 992.7 994.4 44.4
22/11:00pm -0.2 -9.6 -0.3 99 0.0 NNW 39 74 21 40 992.9 994.5 43.4
22/10:30pm 0.2 -11.3 0.1 99 0.0 NW 50 74 27 40 992.9 994.5 42.4
22/10:00pm 0.4 -11.8 0.3 99 0.0 NW 54 83 29 45 993.2 994.9 42.0

Other Formats:

Comma delimited format used in spreadsheet applications
http://www.bom.gov.au/fwo/IDV60801/IDV60801.94903.axf

JavaScript Object Notation format (JSON) in row-major order
http://www.bom.gov.au/fwo/IDV60801/IDV60801.94903.json